aviador You're here:

KPAM Decoded Metar

PANAMA CITY in FL, USA
Report Time2017-12-18 02:56:00
UTC Time2017-12-18 03:18:01
Flight Rules vfr VFR
Wind110° at 04 kt
W.Decomp.*RWY 13: 3.8 kt HW 1.3 kt LCW
W.Rank110° ranks 21
Current wind is below 110° avg. (5.7)
Visibility9999 m
Phenomena:N/A
Clouds:Few 040 Hf
Expected CloudBase > 400 ft AGL from Temp-Dew spread
CeilingNone
Temp19°C (ISA +4)
Dew Point18°C (94% RH)
QNH1022 hPa
Density Alt459 ft
Elevation16 ft
Report Wrong Elevation
Raw Report
KPAM 180256Z AUTO 11004KT 10SM FEW040 19/18 A3018 RMK AO2 SLP223
60000 T01890182 53002 TSNO $=

Extra information for KPAM:More info

Metar Taf Metar & Taf Last 4 Metars F.Rules Stats Wind Profile Meteogram Temp Stats Airport Information Weather charts Add Link Nearby VenuesMetar ALERT Operation Metar Decoded Social comments

AIRNAV info for KPAM